Terminal Aerodrome Forecast
Issued by NWS Boston, MA

Home | Current Version | Previous Version | Text Only | Print | Product List | Glossary On
Versions: 1 2 3 4 5 6 7 8 9 10 11 12 13 14 15 16 17 18 19 20 21 22 23 24 25 26 27 28 29 30 31 32 33 34 35 36 37 38 39 40 41 42 43 44 45 46
858
FTUS41 KBOX 172335
TAFBOS
TAF
KBOS 172335Z 1800/1906 10012KT 6SM -RA SCT035 OVC060
     FM180300 12013G21KT 4SM -RA BR OVC010
     FM181100 08018G26KT 2SM -RA BR OVC010
     FM181700 06017G26KT 2SM BR VCSH OVC010
     FM190000 05009KT P6SM OVC015=

USA.gov is the U.S. government's official web portal to all federal, state and local government web resources and services.